Time;durP1;ratioP1;P1;durP2;ratioP2;P2;SDS_P1;SDS_P2;PMS_P1;PMS_P2;Temp;Humidity;BMP_temperature;BMP_pressure;BME280_temperature;BME280_humidity;BME280_pressure;Samples;Min_cycle;Max_cycle;Signal;HPM_P1;HPM_P2
2022/08/14 00:02:05;;;;;;;6.60;6.00;;;17.00;99.90;;;;;;5051585;28;20253;-79
2022/08/14 00:04:33;;;;;;;6.83;6.03;;;17.00;99.90;;;;;;5051516;28;20249;-79
2022/08/14 00:07:01;;;;;;;4.73;4.03;;;17.00;99.90;;;;;;5053542;28;20210;-79
2022/08/14 00:09:28;;;;;;;4.67;4.17;;;16.90;99.90;;;;;;5053630;28;20625;-79
2022/08/14 00:11:55;;;;;;;6.80;4.13;;;16.80;99.90;;;;;;5053396;28;20260;-79
2022/08/14 00:14:22;;;;;;;5.90;4.37;;;16.80;99.90;;;;;;5053578;28;20206;-79
2022/08/14 00:16:49;;;;;;;5.73;4.10;;;16.80;99.90;;;;;;5055055;28;20608;-79
2022/08/14 00:19:16;;;;;;;6.70;6.10;;;16.70;99.90;;;;;;5053386;28;20230;-79
2022/08/14 00:21:43;;;;;;;6.13;5.63;;;16.70;99.90;;;;;;5046939;28;20248;-79
2022/08/14 00:24:11;;;;;;;5.70;4.23;;;16.70;99.90;;;;;;5049281;28;20202;-79
2022/08/14 00:26:38;;;;;;;4.23;3.27;;;16.60;99.90;;;;;;5051784;28;20246;-79
2022/08/14 00:29:05;;;;;;;4.70;3.90;;;16.60;99.90;;;;;;5050882;28;20207;-79
2022/08/14 00:31:31;;;;;;;4.80;3.57;;;16.60;99.90;;;;;;5051414;28;20228;-79
2022/08/14 00:33:58;;;;;;;5.23;3.60;;;16.60;99.90;;;;;;5053997;28;20195;-79
2022/08/14 00:36:26;;;;;;;5.47;5.00;;;16.60;99.90;;;;;;5055006;28;20391;-79
2022/08/14 00:38:52;;;;;;;6.03;4.33;;;16.50;99.90;;;;;;5052346;28;20284;-79
2022/08/14 00:41:21;;;;;;;3.73;3.40;;;16.50;99.90;;;;;;5053861;28;20202;-79
2022/08/14 00:43:47;;;;;;;4.40;3.30;;;16.40;99.90;;;;;;5050845;28;20602;-79
2022/08/14 00:46:14;;;;;;;4.27;3.10;;;16.40;99.90;;;;;;5051785;28;20320;-79
2022/08/14 00:48:41;;;;;;;3.07;2.80;;;16.40;99.90;;;;;;5052810;28;20194;-80
2022/08/14 00:51:09;;;;;;;4.23;3.30;;;16.40;99.90;;;;;;5052293;28;20210;-79
2022/08/14 00:53:38;;;;;;;3.50;3.20;;;16.30;99.90;;;;;;5052781;28;20586;-79
2022/08/14 00:56:06;;;;;;;3.23;2.93;;;16.30;99.90;;;;;;5052063;28;20287;-78
2022/08/14 00:58:34;;;;;;;3.93;3.53;;;16.30;99.90;;;;;;5047617;28;20214;-79
2022/08/14 01:01:06;;;;;;;3.43;3.10;;;16.20;99.90;;;;;;5052016;28;20206;-79
2022/08/14 01:03:38;;;;;;;3.70;3.20;;;16.10;99.90;;;;;;5051226;28;20206;-79
2022/08/14 01:06:08;;;;;;;4.83;3.50;;;16.10;99.90;;;;;;5052232;28;20599;-79
2022/08/14 01:08:37;;;;;;;3.80;3.13;;;16.00;99.90;;;;;;5047247;28;20278;-79
2022/08/14 01:11:05;;;;;;;5.07;3.27;;;16.00;99.90;;;;;;5052174;28;20202;-79
2022/08/14 01:13:38;;;;;;;4.07;3.13;;;15.90;99.90;;;;;;5053019;28;20194;-79
2022/08/14 01:16:08;;;;;;;3.80;3.10;;;15.90;99.90;;;;;;5045522;28;20269;-78
2022/08/14 01:21:24;;;;;;;4.57;3.40;;;15.90;99.90;;;;;;5047187;28;20201;-79
2022/08/14 01:23:52;;;;;;;3.80;3.40;;;15.90;99.90;;;;;;5050567;28;20205;-79
2022/08/14 01:26:22;;;;;;;3.83;3.30;;;15.80;99.90;;;;;;5051874;28;20208;-79
2022/08/14 01:28:54;;;;;;;4.23;3.63;;;15.80;99.90;;;;;;5053625;28;20186;-78
2022/08/14 01:31:22;;;;;;;4.57;3.43;;;15.80;99.90;;;;;;5053988;28;20575;-79
2022/08/14 01:33:55;;;;;;;3.77;3.43;;;15.80;99.90;;;;;;5052943;28;20205;-79
2022/08/14 01:36:25;;;;;;;3.93;3.50;;;15.70;99.90;;;;;;5053636;28;20216;-79
2022/08/14 01:38:56;;;;;;;4.00;3.60;;;15.60;99.90;;;;;;5048319;28;20238;-79
2022/08/14 01:41:26;;;;;;;5.33;4.40;;;15.60;99.90;;;;;;5051115;28;20201;-79
2022/08/14 01:43:58;;;;;;;6.93;6.10;;;15.50;99.90;;;;;;5050909;28;20728;-79
2022/08/14 01:46:25;;;;;;;6.80;6.20;;;15.50;99.90;;;;;;5051078;28;20227;-79
2022/08/14 01:48:52;;;;;;;6.97;6.33;;;15.40;99.90;;;;;;5053570;28;20211;-79
2022/08/14 01:51:22;;;;;;;6.90;6.20;;;15.40;99.90;;;;;;5054240;28;20351;-79
2022/08/14 01:53:53;;;;;;;6.43;5.93;;;15.40;99.90;;;;;;5056603;28;20276;-79
2022/08/14 01:56:23;;;;;;;8.23;7.43;;;15.30;99.90;;;;;;5056345;28;20235;-79
2022/08/14 01:58:50;;;;;;;4.73;4.33;;;15.30;99.90;;;;;;5052808;28;20224;-79
2022/08/14 02:01:18;;;;;;;4.70;4.20;;;15.30;99.90;;;;;;5055763;28;20315;-79
2022/08/14 02:03:45;;;;;;;4.63;4.10;;;15.20;99.90;;;;;;5056151;28;20195;-78
2022/08/14 02:06:13;;;;;;;7.60;6.30;;;15.20;99.90;;;;;;5056617;28;20220;-79
2022/08/14 02:08:40;;;;;;;8.20;5.97;;;15.10;99.90;;;;;;5057447;28;20193;-79
2022/08/14 02:11:17;;;;;;;7.17;6.57;;;15.10;99.90;;;;;;5053653;28;20270;-78
2022/08/14 02:13:46;;;;;;;6.93;6.43;;;15.10;99.90;;;;;;5044785;28;20195;-79
2022/08/14 02:16:15;;;;;;;7.00;6.40;;;15.10;99.90;;;;;;5056998;28;20310;-79
2022/08/14 02:18:42;;;;;;;6.30;5.80;;;15.10;99.90;;;;;;5056237;28;20225;-79
2022/08/14 02:21:11;;;;;;;6.40;5.90;;;15.10;99.90;;;;;;5047753;28;20662;-79
2022/08/14 02:23:38;;;;;;;6.57;6.07;;;15.20;99.90;;;;;;5057288;28;20559;-79
2022/08/14 02:26:21;;;;;;;7.30;6.70;;;15.10;99.90;;;;;;5051914;28;20216;-78
2022/08/14 02:28:50;;;;;;;6.73;6.20;;;15.10;99.90;;;;;;5054419;28;20199;-79
2022/08/14 02:31:18;;;;;;;6.60;6.10;;;15.10;99.90;;;;;;5053621;28;20752;-79
2022/08/14 02:33:46;;;;;;;6.30;5.80;;;15.00;99.90;;;;;;5057039;28;20251;-78
2022/08/14 02:36:15;;;;;;;6.50;6.00;;;15.00;99.90;;;;;;5056106;28;20628;-78
2022/08/14 02:38:42;;;;;;;6.50;6.00;;;15.00;99.90;;;;;;5055413;28;20272;-79
2022/08/14 02:41:12;;;;;;;6.30;5.80;;;14.90;99.90;;;;;;5052694;28;20260;-79
2022/08/14 02:43:41;;;;;;;6.40;5.90;;;14.90;99.90;;;;;;5052896;28;20201;-79
2022/08/14 02:46:09;;;;;;;6.83;6.27;;;14.80;99.90;;;;;;5051458;28;20776;-79
2022/08/14 02:48:38;;;;;;;7.03;6.30;;;14.80;99.90;;;;;;5048596;28;20187;-81
2022/08/14 02:51:07;;;;;;;7.00;6.40;;;14.70;99.90;;;;;;5055502;28;20195;-80
2022/08/14 02:53:34;;;;;;;6.77;6.20;;;14.70;99.90;;;;;;5054843;28;20229;-80
2022/08/14 02:56:01;;;;;;;7.13;6.43;;;14.70;99.90;;;;;;5047942;28;20237;-79
2022/08/14 02:58:30;;;;;;;10.00;6.57;;;14.70;99.90;;;;;;5056832;28;20283;-81
2022/08/14 03:00:59;;;;;;;6.73;6.17;;;14.60;99.90;;;;;;5055648;28;20205;-79
2022/08/14 03:03:26;;;;;;;7.20;6.57;;;14.50;99.90;;;;;;5056958;28;20216;-79
2022/08/14 03:05:53;;;;;;;6.47;5.90;;;14.50;99.90;;;;;;5054252;28;20227;-79
2022/08/14 03:08:21;;;;;;;6.77;6.17;;;14.50;99.90;;;;;;5056230;28;20193;-78
2022/08/14 03:10:48;;;;;;;7.37;6.67;;;14.40;99.90;;;;;;5050985;28;20677;-78
2022/08/14 03:13:16;;;;;;;6.97;6.30;;;14.40;99.90;;;;;;5055539;28;20617;-79
2022/08/14 03:15:45;;;;;;;6.93;6.37;;;14.40;99.90;;;;;;5055685;28;20241;-78
2022/08/14 03:18:14;;;;;;;6.63;6.10;;;14.50;99.90;;;;;;5045362;28;20208;-79
2022/08/14 03:20:41;;;;;;;6.37;5.87;;;14.40;99.90;;;;;;5054100;28;20760;-79
2022/08/14 03:23:08;;;;;;;6.50;5.90;;;14.40;99.90;;;;;;5053392;28;20667;-78
2022/08/14 03:25:36;;;;;;;6.90;6.30;;;14.40;99.90;;;;;;5054045;28;20200;-78
2022/08/14 03:28:05;;;;;;;6.80;6.23;;;14.40;99.90;;;;;;5053951;28;20227;-79
2022/08/14 03:30:34;;;;;;;6.73;6.23;;;14.30;99.90;;;;;;5050571;28;20281;-78
2022/08/14 03:33:01;;;;;;;6.93;6.30;;;14.30;99.90;;;;;;5053783;28;20699;-80
2022/08/14 03:35:29;;;;;;;7.03;6.40;;;14.20;99.90;;;;;;5053572;28;20203;-79
2022/08/14 03:38:03;;;;;;;7.00;6.40;;;14.20;99.90;;;;;;5053430;28;20223;-79
2022/08/14 03:40:30;;;;;;;7.50;6.70;;;14.20;99.90;;;;;;5047284;28;20202;-79
2022/08/14 03:42:57;;;;;;;6.90;6.30;;;14.10;99.90;;;;;;5052927;28;20196;-79
2022/08/14 03:45:24;;;;;;;7.07;6.47;;;14.00;99.90;;;;;;5054156;28;20693;-78
2022/08/14 03:47:51;;;;;;;6.60;6.10;;;14.00;99.90;;;;;;5055786;28;20203;-78
2022/08/14 03:50:18;;;;;;;7.47;6.80;;;14.00;99.90;;;;;;5053086;28;20204;-79
2022/08/14 03:52:47;;;;;;;7.00;6.50;;;14.00;99.90;;;;;;5053164;28;20207;-78
2022/08/14 03:55:14;;;;;;;7.23;6.53;;;14.00;99.90;;;;;;5046772;28;20202;-78
2022/08/14 03:57:41;;;;;;;7.30;6.70;;;14.00;99.90;;;;;;5055359;28;20215;-78
2022/08/14 04:00:12;;;;;;;6.90;6.20;;;14.00;99.90;;;;;;5055330;28;20301;-79
2022/08/14 04:02:39;;;;;;;6.53;6.03;;;14.00;99.90;;;;;;5056411;28;20203;-78
2022/08/14 04:05:08;;;;;;;6.30;5.80;;;13.90;99.90;;;;;;5050612;28;20669;-78
2022/08/14 04:07:37;;;;;;;7.00;6.50;;;13.90;99.90;;;;;;5053815;28;20215;-78
2022/08/14 04:10:07;;;;;;;7.07;6.37;;;13.90;99.90;;;;;;5053888;28;20195;-78
2022/08/14 04:12:35;;;;;;;7.10;6.50;;;13.80;99.90;;;;;;5055321;28;20250;-78
2022/08/14 04:15:02;;;;;;;6.80;6.30;;;13.80;99.90;;;;;;5053226;28;20673;-79
2022/08/14 04:17:29;;;;;;;7.07;6.47;;;13.80;99.90;;;;;;5054319;28;20637;-79
2022/08/14 04:19:56;;;;;;;6.93;6.33;;;13.80;99.90;;;;;;5052602;28;20250;-77
2022/08/14 04:22:24;;;;;;;6.97;6.37;;;13.90;99.90;;;;;;5046963;28;20301;-80
2022/08/14 04:24:52;;;;;;;7.13;6.53;;;13.90;99.90;;;;;;5052306;28;20252;-79
2022/08/14 04:27:20;;;;;;;6.90;6.37;;;13.90;99.90;;;;;;5051176;28;20230;-79
2022/08/14 04:29:47;;;;;;;6.60;6.10;;;13.90;99.90;;;;;;5049113;28;20194;-80
2022/08/14 04:32:14;;;;;;;7.00;6.40;;;13.80;99.90;;;;;;5050967;28;20230;-81
2022/08/14 04:34:41;;;;;;;6.90;6.30;;;13.80;99.90;;;;;;5051238;28;20286;-79
2022/08/14 04:45:31;;;;;;;6.63;6.13;;;14.10;99.90;;;;;;5043745;28;20203;-82
2022/08/14 04:48:13;;;;;;;6.80;6.30;;;14.10;99.90;;;;;;5052130;28;20218;-81
2022/08/14 04:50:43;;;;;;;6.90;6.40;;;14.20;99.90;;;;;;5041712;28;20200;-80
2022/08/14 04:53:11;;;;;;;7.50;6.80;;;14.30;99.90;;;;;;5041506;28;20682;-79
2022/08/14 04:55:40;;;;;;;6.97;6.47;;;14.40;99.90;;;;;;5043982;28;20252;-80
2022/08/14 04:58:08;;;;;;;7.00;6.40;;;14.60;99.90;;;;;;5049972;28;20218;-81
2022/08/14 05:00:38;;;;;;;6.37;5.87;;;14.70;99.90;;;;;;5050952;28;20682;-81
2022/08/14 05:03:06;;;;;;;6.00;5.60;;;14.90;99.90;;;;;;5051288;28;20203;-80
2022/08/14 05:05:33;;;;;;;6.20;5.70;;;15.00;99.90;;;;;;5051387;28;20264;-81
2022/08/14 05:08:10;;;;;;;6.40;5.80;;;15.10;99.90;;;;;;5050827;28;20191;-81
2022/08/14 05:10:40;;;;;;;6.33;5.83;;;15.20;99.90;;;;;;5050260;28;20201;-81
2022/08/14 05:13:09;;;;;;;6.67;6.17;;;15.40;99.90;;;;;;5051709;28;20199;-81
2022/08/14 05:15:38;;;;;;;6.37;5.83;;;15.60;99.90;;;;;;5052420;28;20179;-81
2022/08/14 05:18:11;;;;;;;5.97;5.47;;;15.70;99.90;;;;;;5052740;28;20215;-80
2022/08/14 05:20:39;;;;;;;6.30;5.80;;;15.90;99.90;;;;;;5050711;28;20201;-79
2022/08/14 05:23:07;;;;;;;6.73;6.13;;;15.90;99.90;;;;;;5050262;28;20205;-81
2022/08/14 05:25:34;;;;;;;6.47;5.97;;;16.00;99.90;;;;;;5054181;28;20258;-80
2022/08/14 05:28:10;;;;;;;4.70;4.30;;;16.10;99.90;;;;;;5053369;28;20837;-79
2022/08/14 05:30:37;;;;;;;6.10;5.60;;;16.10;99.90;;;;;;5052297;28;20205;-79
2022/08/14 05:33:04;;;;;;;5.87;5.40;;;16.20;99.90;;;;;;5052180;28;20203;-79
2022/08/14 05:35:31;;;;;;;6.20;5.70;;;16.30;99.90;;;;;;5051875;28;20200;-79
2022/08/14 05:37:59;;;;;;;5.90;5.50;;;16.30;99.90;;;;;;5052357;28;20636;-80
2022/08/14 05:40:25;;;;;;;5.97;5.57;;;16.40;99.90;;;;;;5052048;28;20253;-79
2022/08/14 05:42:52;;;;;;;6.30;5.80;;;16.50;99.90;;;;;;5052534;28;20686;-79
2022/08/14 05:45:21;;;;;;;6.03;5.53;;;16.60;99.90;;;;;;5051488;28;20663;-79
2022/08/14 05:47:47;;;;;;;6.03;5.63;;;16.70;99.90;;;;;;5054320;28;20666;-80
2022/08/14 05:50:15;;;;;;;4.97;4.47;;;16.90;99.90;;;;;;5052079;28;20204;-80
2022/08/14 05:52:41;;;;;;;3.20;2.90;;;17.10;99.90;;;;;;5052205;28;20198;-80
2022/08/14 05:55:10;;;;;;;5.00;3.40;;;17.20;99.90;;;;;;5051515;28;20251;-79
2022/08/14 05:57:51;;;;;;;4.07;3.70;;;17.30;99.90;;;;;;5054133;28;20227;-79
2022/08/14 06:00:23;;;;;;;4.77;4.40;;;17.30;99.90;;;;;;5047363;28;20275;-80
2022/08/14 06:02:49;;;;;;;5.27;4.90;;;17.40;99.90;;;;;;5052018;28;20202;-79
2022/08/14 06:05:16;;;;;;;5.80;5.30;;;17.50;99.90;;;;;;5051520;28;20211;-79
2022/08/14 06:07:43;;;;;;;5.67;5.27;;;17.70;99.90;;;;;;5046693;28;20219;-80
2022/08/14 06:10:11;;;;;;;7.43;6.83;;;17.80;99.90;;;;;;5044416;28;20199;-80
2022/08/14 06:12:38;;;;;;;5.73;5.30;;;17.90;99.90;;;;;;5052353;28;20210;-79
2022/08/14 06:15:07;;;;;;;6.03;5.50;;;18.00;99.90;;;;;;5053124;28;20264;-79
2022/08/14 06:17:44;;;;;;;6.60;6.00;;;18.20;99.90;;;;;;5051979;28;20257;-80
2022/08/14 06:20:12;;;;;;;5.93;5.43;;;18.30;99.90;;;;;;5044913;28;20758;-78
2022/08/14 06:22:39;;;;;;;3.30;3.00;;;18.40;99.90;;;;;;5047893;28;20200;-77
2022/08/14 06:25:07;;;;;;;6.00;5.50;;;18.40;99.90;;;;;;5044692;28;20245;-77
2022/08/14 06:27:36;;;;;;;5.40;5.00;;;18.50;99.90;;;;;;5040408;28;20652;-78
2022/08/14 06:30:05;;;;;;;4.87;4.23;;;18.60;99.90;;;;;;5059603;28;20197;-78
2022/08/14 06:32:32;;;;;;;5.10;4.70;;;18.70;99.90;;;;;;5054819;28;20200;-78
2022/08/14 06:35:00;;;;;;;5.10;4.70;;;18.70;99.90;;;;;;5051445;28;20227;-78
2022/08/14 06:37:27;;;;;;;5.60;5.20;;;18.80;99.90;;;;;;5052032;28;20269;-79
2022/08/14 06:39:54;;;;;;;6.20;5.70;;;18.80;99.90;;;;;;5052784;28;20247;-78
2022/08/14 06:42:21;;;;;;;4.27;3.97;;;18.90;99.90;;;;;;5055571;28;20214;-80
2022/08/14 06:44:47;;;;;;;5.70;5.20;;;19.00;99.90;;;;;;5057609;28;20258;-79
2022/08/14 06:47:14;;;;;;;6.10;5.60;;;19.20;99.90;;;;;;5052967;28;20278;-79
2022/08/14 06:49:41;;;;;;;4.17;3.10;;;19.20;99.90;;;;;;5056670;28;20242;-82
2022/08/14 06:52:09;;;;;;;3.37;3.07;;;19.40;99.90;;;;;;5061782;28;20739;-80
2022/08/14 06:54:36;;;;;;;3.47;3.10;;;19.50;99.90;;;;;;5056758;28;20560;-80
2022/08/14 06:57:03;;;;;;;7.07;5.97;;;19.60;99.90;;;;;;5048606;28;20236;-80
2022/08/14 06:59:29;;;;;;;3.43;3.00;;;19.90;99.90;;;;;;5053453;28;20210;-80
2022/08/14 07:07:36;;;;;;;5.70;5.30;;;20.40;99.90;;;;;;5050941;28;20224;-80
2022/08/14 07:10:04;;;;;;;3.03;2.83;;;20.50;99.90;;;;;;5047027;28;20204;-80
2022/08/14 07:12:31;;;;;;;5.13;4.63;;;20.60;99.90;;;;;;5051873;28;20282;-80
2022/08/14 07:14:58;;;;;;;5.90;5.17;;;20.50;99.90;;;;;;5050888;28;20203;-80
2022/08/14 07:17:25;;;;;;;2.90;2.70;;;20.50;99.90;;;;;;5054455;28;20269;-80
2022/08/14 07:19:52;;;;;;;6.03;5.63;;;20.60;99.90;;;;;;5054483;28;20207;-80
2022/08/14 07:22:19;;;;;;;4.63;4.23;;;20.90;99.90;;;;;;5054436;28;20192;-80
2022/08/14 07:24:47;;;;;;;3.40;3.10;;;21.20;99.90;;;;;;5053113;28;20191;-81
2022/08/14 07:27:14;;;;;;;6.07;4.97;;;21.50;99.90;;;;;;5053751;28;20215;-81
2022/08/14 07:29:41;;;;;;;3.13;2.73;;;21.80;99.90;;;;;;5054509;28;20664;-81
2022/08/14 07:32:10;;;;;;;3.07;2.80;;;22.20;99.90;;;;;;5048718;28;20199;-80
2022/08/14 07:34:36;;;;;;;6.40;5.80;;;22.50;99.90;;;;;;5052574;28;20290;-82
2022/08/14 07:37:04;;;;;;;5.97;5.50;;;22.80;99.90;;;;;;5052175;28;20238;-79
2022/08/14 07:39:31;;;;;;;5.10;4.70;;;23.10;99.90;;;;;;5048822;28;20219;-81
2022/08/14 07:41:59;;;;;;;5.80;5.40;;;23.70;99.90;;;;;;5053638;28;20238;-79
2022/08/14 07:44:26;;;;;;;6.27;5.10;;;24.10;99.90;;;;;;5053229;28;20200;-76
2022/08/14 07:46:53;;;;;;;6.30;5.80;;;24.60;99.90;;;;;;5051309;28;20585;-76
2022/08/14 07:49:21;;;;;;;5.83;5.40;;;25.10;98.90;;;;;;5047181;28;20256;-78
2022/08/14 07:51:48;;;;;;;5.93;5.43;;;25.30;98.00;;;;;;5051131;28;20207;-77
2022/08/14 07:54:16;;;;;;;5.40;5.00;;;25.60;97.40;;;;;;5051635;28;20195;-75
2022/08/14 07:56:42;;;;;;;4.83;4.50;;;25.80;98.10;;;;;;5051214;28;20719;-78
2022/08/14 07:59:11;;;;;;;5.07;4.67;;;26.30;96.70;;;;;;5051001;28;20707;-77
2022/08/14 08:01:38;;;;;;;4.97;4.47;;;26.50;95.70;;;;;;5049594;28;20188;-76
2022/08/14 08:04:07;;;;;;;5.33;4.93;;;26.60;95.00;;;;;;5049730;28;20256;-78
2022/08/14 08:06:35;;;;;;;5.10;4.70;;;26.70;95.80;;;;;;5048774;28;20215;-76
2022/08/14 08:09:03;;;;;;;5.50;5.00;;;27.20;94.90;;;;;;5047786;28;20207;-75
2022/08/14 08:11:32;;;;;;;5.23;4.83;;;27.40;94.00;;;;;;5046922;28;20665;-76
2022/08/14 08:14:03;;;;;;;5.80;5.40;;;27.70;94.10;;;;;;5046383;28;20195;-78
2022/08/14 08:16:31;;;;;;;5.40;5.10;;;27.90;93.20;;;;;;5051707;28;20222;-78
2022/08/14 08:18:58;;;;;;;7.03;5.63;;;28.00;94.40;;;;;;5050991;28;20252;-79
2022/08/14 08:21:25;;;;;;;5.53;4.53;;;28.30;92.90;;;;;;5046609;28;20277;-78
2022/08/14 08:23:52;;;;;;;3.83;3.40;;;28.40;92.40;;;;;;5049983;28;20298;-78
2022/08/14 08:26:19;;;;;;;4.30;4.00;;;28.40;92.70;;;;;;5052780;28;20218;-79
2022/08/14 08:28:55;;;;;;;3.00;2.80;;;28.70;91.70;;;;;;5053693;28;20265;-78
2022/08/14 08:31:22;;;;;;;4.80;4.50;;;28.70;91.00;;;;;;5050863;28;20286;-78
2022/08/14 08:33:53;;;;;;;5.60;5.20;;;28.90;91.80;;;;;;5052471;28;20199;-78
2022/08/14 08:36:21;;;;;;;5.57;5.17;;;29.30;90.30;;;;;;5053019;28;20203;-79
2022/08/14 08:38:49;;;;;;;5.73;5.33;;;29.40;90.50;;;;;;5050131;28;20203;-77
2022/08/14 08:41:16;;;;;;;5.77;5.37;;;29.60;90.00;;;;;;5048511;28;20219;-78
2022/08/14 08:43:43;;;;;;;5.70;5.30;;;29.70;90.00;;;;;;5052025;28;20203;-77
2022/08/14 08:46:11;;;;;;;5.30;4.90;;;29.70;90.60;;;;;;5051165;28;20706;-78
2022/08/14 08:48:45;;;;;;;6.67;6.07;;;30.00;90.60;;;;;;5049813;28;20617;-77
2022/08/14 08:51:23;;;;;;;5.97;5.47;;;30.40;89.40;;;;;;5043727;28;20617;-78
2022/08/14 08:53:56;;;;;;;5.70;5.30;;;30.50;89.20;;;;;;5046942;28;20186;-77
2022/08/14 08:56:44;;;;;;;5.70;5.30;;;30.70;87.50;;;;;;5049906;28;20427;-78
2022/08/14 08:59:21;;;;;;;5.23;4.83;;;30.70;87.30;;;;;;5044363;28;20207;-78
2022/08/14 09:01:55;;;;;;;5.80;5.30;;;30.60;85.70;;;;;;5042111;28;20195;-78
2022/08/14 09:04:22;;;;;;;5.73;5.30;;;30.50;84.40;;;;;;5047281;28;20207;-77
2022/08/14 09:06:50;;;;;;;4.93;4.53;;;30.40;86.40;;;;;;5045573;28;20285;-77
2022/08/14 09:09:21;;;;;;;5.37;4.97;;;30.70;83.90;;;;;;5046871;28;20196;-79
2022/08/14 09:11:48;;;;;;;6.03;5.53;;;30.50;85.50;;;;;;5041672;28;20369;-78
2022/08/14 09:14:15;;;;;;;5.77;5.27;;;30.90;86.40;;;;;;5052669;28;20195;-78
2022/08/14 09:16:42;;;;;;;5.77;5.33;;;31.30;85.60;;;;;;5048419;28;20218;-79
2022/08/14 09:19:10;;;;;;;5.30;4.97;;;31.80;85.00;;;;;;5042942;28;20670;-77
2022/08/14 09:21:39;;;;;;;4.37;4.07;;;31.80;80.80;;;;;;5049559;28;20253;-79
2022/08/14 09:24:08;;;;;;;5.33;5.03;;;31.80;72.80;;;;;;5050066;28;20196;-78
2022/08/14 09:26:36;;;;;;;5.87;5.40;;;31.60;73.70;;;;;;5052854;28;20211;-78
2022/08/14 09:29:04;;;;;;;5.13;4.83;;;31.80;70.80;;;;;;5049441;28;20544;-78
2022/08/14 09:31:33;;;;;;;5.53;5.13;;;31.60;68.20;;;;;;5051715;28;20191;-77
2022/08/14 09:34:11;;;;;;;5.73;5.23;;;31.60;69.40;;;;;;5048629;28;20742;-78
2022/08/14 09:36:48;;;;;;;4.13;3.73;;;31.70;68.90;;;;;;5050001;28;20715;-77
2022/08/14 09:39:30;;;;;;;5.10;4.70;;;31.70;68.30;;;;;;5042462;28;20245;-77
2022/08/14 09:42:19;;;;;;;4.20;3.80;;;31.90;67.60;;;;;;5049961;28;20253;-78
2022/08/14 09:44:58;;;;;;;4.90;4.50;;;31.60;66.40;;;;;;5050217;28;20203;-75
2022/08/14 09:47:41;;;;;;;5.10;4.80;;;31.70;71.20;;;;;;5045409;28;20731;-77
2022/08/14 09:50:16;;;;;;;4.70;4.40;;;31.80;67.90;;;;;;5052361;28;20192;-77
2022/08/14 09:52:50;;;;;;;5.00;4.70;;;31.90;66.50;;;;;;5046669;28;20191;-76
2022/08/14 09:55:19;;;;;;;5.23;4.70;;;31.80;65.30;;;;;;5031545;28;20211;-76
2022/08/14 09:57:47;;;;;;;5.40;5.00;;;31.90;65.50;;;;;;5047697;28;20242;-76
2022/08/14 10:00:17;;;;;;;5.87;5.27;;;32.00;67.70;;;;;;5041806;28;20714;-75
2022/08/14 10:02:56;;;;;;;5.20;4.80;;;32.10;68.60;;;;;;5050484;28;20203;-79
2022/08/14 10:05:32;;;;;;;5.13;4.73;;;32.30;68.20;;;;;;5042919;28;20191;-75
2022/08/14 10:08:00;;;;;;;4.90;4.60;;;32.40;65.20;;;;;;5041752;28;20191;-78
2022/08/14 10:10:34;;;;;;;4.67;4.37;;;32.40;65.50;;;;;;5050989;28;20637;-75
2022/08/14 10:13:02;;;;;;;3.70;3.50;;;31.90;61.80;;;;;;5051513;28;20245;-76
2022/08/14 10:15:31;;;;;;;3.93;3.63;;;31.20;63.20;;;;;;5054539;28;20203;-76
2022/08/14 10:18:08;;;;;;;2.30;2.10;;;30.90;66.10;;;;;;5054721;28;20728;-76
2022/08/14 10:20:40;;;;;;;2.40;2.20;;;31.00;64.20;;;;;;5054928;28;20261;-75
2022/08/14 10:23:12;;;;;;;2.30;2.00;;;30.80;65.30;;;;;;5054484;28;20195;-75
2022/08/14 10:25:49;;;;;;;2.30;2.10;;;30.80;63.70;;;;;;5054104;28;20199;-78
2022/08/14 10:28:17;;;;;;;2.10;1.93;;;30.80;64.40;;;;;;5050542;28;20209;-78
2022/08/14 10:30:47;;;;;;;1.97;1.87;;;31.10;65.40;;;;;;5055660;28;20187;-80
2022/08/14 10:33:25;;;;;;;2.83;1.90;;;31.30;65.20;;;;;;5048140;28;20203;-79
2022/08/14 10:35:55;;;;;;;2.37;2.03;;;31.20;63.80;;;;;;5049918;28;20218;-79
2022/08/14 10:38:31;;;;;;;2.00;1.90;;;31.20;62.70;;;;;;5055024;28;20665;-78
2022/08/14 10:41:12;;;;;;;2.10;2.00;;;31.00;63.30;;;;;;5054171;28;20612;-79
2022/08/14 10:43:39;;;;;;;2.00;1.90;;;30.80;62.60;;;;;;5056150;28;20282;-78
2022/08/14 10:46:13;;;;;;;4.57;4.27;;;30.80;63.60;;;;;;5053652;28;20222;-77
2022/08/14 10:48:40;;;;;;;4.53;4.10;;;30.90;64.70;;;;;;5049573;28;20199;-78
2022/08/14 10:51:07;;;;;;;2.10;1.87;;;30.80;62.60;;;;;;5054076;28;20195;-79
2022/08/14 10:53:36;;;;;;;2.57;2.00;;;30.90;62.60;;;;;;5053304;28;20227;-77
2022/08/14 10:56:12;;;;;;;4.07;1.90;;;31.00;62.50;;;;;;5056907;28;20661;-78
2022/08/14 10:58:39;;;;;;;2.13;2.00;;;30.90;61.80;;;;;;5054761;28;20660;-78
2022/08/14 11:01:06;;;;;;;1.93;1.83;;;30.90;63.40;;;;;;5053895;28;20226;-78
2022/08/14 11:03:41;;;;;;;1.87;1.77;;;30.60;62.40;;;;;;5054394;28;20238;-78
2022/08/14 11:06:17;;;;;;;3.57;3.27;;;30.20;62.40;;;;;;5050481;28;20824;-77
2022/08/14 11:08:44;;;;;;;4.97;4.67;;;30.10;62.20;;;;;;5053522;28;20619;-77
2022/08/14 11:11:12;;;;;;;4.73;4.40;;;30.20;62.60;;;;;;5045902;28;20214;-77
2022/08/14 11:13:42;;;;;;;4.47;4.27;;;30.10;61.70;;;;;;5054263;28;20206;-81
2022/08/14 11:16:10;;;;;;;4.50;4.20;;;30.00;63.90;;;;;;5047971;28;20222;-80
2022/08/14 11:18:37;;;;;;;4.70;4.40;;;30.20;63.80;;;;;;5055349;28;20672;-78
2022/08/14 11:21:06;;;;;;;4.60;4.30;;;30.20;64.70;;;;;;5054843;28;20219;-78
2022/08/14 11:23:35;;;;;;;4.97;4.37;;;30.30;65.90;;;;;;5055182;28;20291;-78
2022/08/14 11:26:02;;;;;;;1.87;1.77;;;30.20;63.30;;;;;;5052965;28;20622;-77
2022/08/14 11:28:33;;;;;;;4.57;4.33;;;30.00;63.80;;;;;;5052505;28;20202;-76
2022/08/14 11:31:03;;;;;;;4.70;4.40;;;30.10;63.90;;;;;;5052352;28;20199;-76
2022/08/14 11:33:31;;;;;;;2.77;2.60;;;30.00;61.00;;;;;;5052169;28;20218;-76
2022/08/14 11:35:59;;;;;;;2.73;2.63;;;29.90;62.40;;;;;;5054049;28;20725;-78
2022/08/14 11:38:27;;;;;;;4.10;3.90;;;29.90;64.80;;;;;;5055562;28;20210;-78
2022/08/14 11:41:00;;;;;;;4.23;4.03;;;29.90;65.50;;;;;;5053247;28;20729;-78
2022/08/14 11:43:28;;;;;;;4.13;3.93;;;29.80;64.50;;;;;;5048620;28;20195;-78
2022/08/14 11:45:57;;;;;;;4.00;3.70;;;30.00;65.70;;;;;;5046710;28;20237;-78
2022/08/14 11:48:25;;;;;;;4.23;3.93;;;30.10;64.40;;;;;;5053027;28;20195;-79
2022/08/14 11:50:53;;;;;;;4.30;4.00;;;30.20;63.60;;;;;;5047357;28;20199;-78
2022/08/14 11:53:22;;;;;;;4.13;3.83;;;30.20;63.10;;;;;;5050009;28;20207;-78
2022/08/14 11:55:55;;;;;;;4.20;3.90;;;30.20;63.70;;;;;;5053917;28;20273;-77
2022/08/14 11:58:27;;;;;;;4.30;4.10;;;30.00;61.00;;;;;;5053890;28;20252;-78
2022/08/14 12:00:58;;;;;;;5.00;3.90;;;30.00;62.40;;;;;;5033582;28;20550;-79
2022/08/14 12:03:35;;;;;;;4.20;4.00;;;29.90;64.90;;;;;;5032357;28;20195;-77
2022/08/14 12:06:08;;;;;;;4.37;4.10;;;29.80;64.20;;;;;;5036614;28;20285;-79
2022/08/14 12:08:35;;;;;;;5.40;4.90;;;29.90;65.60;;;;;;5032779;28;20211;-78
2022/08/14 12:11:03;;;;;;;4.73;4.33;;;30.00;66.30;;;;;;5053067;28;20257;-77
2022/08/14 12:13:32;;;;;;;5.03;4.57;;;30.10;66.30;;;;;;5051608;28;20673;-78
2022/08/14 12:16:06;;;;;;;4.50;4.20;;;30.20;66.20;;;;;;5051921;28;20222;-79
2022/08/14 12:18:34;;;;;;;4.30;4.00;;;30.20;65.50;;;;;;5052588;28;20207;-79
2022/08/14 12:21:11;;;;;;;4.30;4.00;;;30.20;65.70;;;;;;5053919;28;20280;-78
2022/08/14 12:23:39;;;;;;;4.83;4.30;;;30.00;65.50;;;;;;5048993;28;20187;-77
2022/08/14 12:26:08;;;;;;;4.30;4.10;;;29.90;64.40;;;;;;5050421;28;20259;-78
2022/08/14 12:28:35;;;;;;;4.23;4.03;;;29.80;66.20;;;;;;5047639;28;20199;-78
2022/08/14 12:31:15;;;;;;;4.40;4.10;;;29.70;63.90;;;;;;5048736;28;20219;-77
2022/08/14 12:33:43;;;;;;;4.30;4.00;;;29.80;63.90;;;;;;5049383;28;20197;-78
2022/08/14 12:36:20;;;;;;;4.50;4.20;;;29.80;63.80;;;;;;5049086;28;20704;-78
2022/08/14 12:38:49;;;;;;;4.30;4.00;;;29.70;64.30;;;;;;5051526;28;20210;-78
2022/08/14 12:41:18;;;;;;;5.13;4.83;;;29.60;64.80;;;;;;5050299;28;20204;-78
2022/08/14 12:43:47;;;;;;;2.77;2.10;;;29.60;63.40;;;;;;5052769;28;20195;-78
2022/08/14 12:46:23;;;;;;;2.10;2.00;;;29.60;62.70;;;;;;5051874;28;20226;-77
2022/08/14 12:48:50;;;;;;;2.33;2.20;;;29.60;64.20;;;;;;5052081;28;20187;-77
2022/08/14 12:51:18;;;;;;;3.73;3.43;;;29.70;65.20;;;;;;5051784;28;20225;-78
2022/08/14 12:53:45;;;;;;;2.57;2.37;;;29.70;63.30;;;;;;5048429;28;20207;-78
2022/08/14 12:56:12;;;;;;;2.60;2.40;;;29.80;62.30;;;;;;5048538;28;20253;-78
2022/08/14 12:58:47;;;;;;;2.90;2.50;;;29.80;62.40;;;;;;5049180;28;20727;-78
2022/08/14 13:01:18;;;;;;;2.80;2.60;;;29.70;60.10;;;;;;5042509;28;20222;-78
2022/08/14 13:03:47;;;;;;;2.60;2.40;;;29.80;61.90;;;;;;5052586;28;20566;-78
2022/08/14 13:06:16;;;;;;;5.00;4.60;;;29.80;63.10;;;;;;5050998;28;20225;-78
2022/08/14 13:08:45;;;;;;;4.90;4.60;;;29.80;62.00;;;;;;5050514;28;20217;-78
2022/08/14 13:11:13;;;;;;;4.83;4.43;;;29.90;62.60;;;;;;5047809;28;20195;-77
2022/08/14 13:13:43;;;;;;;4.60;4.30;;;29.90;62.70;;;;;;5047116;28;20261;-79
2022/08/14 13:16:15;;;;;;;4.60;4.30;;;29.90;61.80;;;;;;5044258;28;20269;-78